createdAt,value
2018-02-20T00:00:50.416Z,18.70
2018-02-20T00:03:18.809Z,17.83
2018-02-20T00:05:47.218Z,20.77
2018-02-20T00:08:14.855Z,20.17
2018-02-20T00:10:42.458Z,21.70
2018-02-20T00:13:10.820Z,18.67
2018-02-20T00:15:38.455Z,17.83
2018-02-20T00:18:06.045Z,22.87
2018-02-20T00:20:33.679Z,20.67
2018-02-20T00:23:04.238Z,20.60
2018-02-20T00:25:31.835Z,22.50
2018-02-20T00:28:00.237Z,20.47
2018-02-20T00:30:27.831Z,20.50
2018-02-20T00:32:55.489Z,19.30
2018-02-20T00:35:23.091Z,20.00
2018-02-20T00:37:50.693Z,20.23
2018-02-20T00:40:18.324Z,20.73
2018-02-20T00:42:46.691Z,21.10
2018-02-20T00:45:14.324Z,21.97
2018-02-20T00:47:41.936Z,22.00
2018-02-20T00:50:09.528Z,21.57
2018-02-20T00:52:37.154Z,22.50
2018-02-20T00:55:05.508Z,20.37
2018-02-20T00:57:33.122Z,24.60
2018-02-20T01:00:00.715Z,23.77
2018-02-20T01:02:28.366Z,22.90
2018-02-20T01:04:55.960Z,23.47
2018-02-20T01:07:24.326Z,22.77
2018-02-20T01:09:52.719Z,22.03
2018-02-20T01:12:21.083Z,23.10
2018-02-20T01:14:49.520Z,21.37
2018-02-20T01:17:17.115Z,22.47
2018-02-20T01:19:44.727Z,21.90
2018-02-20T01:22:12.425Z,22.60
2018-02-20T01:24:40.036Z,24.60
2018-02-20T01:27:07.662Z,22.27
2018-02-20T01:29:35.267Z,22.23
2018-02-20T01:32:02.856Z,22.50
2018-02-20T01:34:30.489Z,23.90
2018-02-20T01:36:58.099Z,26.13
2018-02-20T01:39:25.747Z,21.33
2018-02-20T01:41:53.357Z,23.33
2018-02-20T01:44:20.958Z,21.27
2018-02-20T01:46:48.579Z,22.10
2018-02-20T01:49:16.176Z,23.20
2018-02-20T01:51:43.836Z,23.07
2018-02-20T01:54:11.446Z,24.60
2018-02-20T01:56:39.050Z,23.00
2018-02-20T01:59:06.677Z,23.57
2018-02-20T02:01:34.266Z,23.00
2018-02-20T02:04:01.896Z,22.00
2018-02-20T02:06:29.496Z,25.27
2018-02-20T02:08:57.105Z,22.30
2018-02-20T02:11:25.498Z,22.67
2018-02-20T02:13:53.095Z,21.77
2018-02-20T02:16:21.495Z,23.87
2018-02-20T02:18:49.091Z,24.90
2018-02-20T02:21:16.690Z,22.63
2018-02-20T02:23:44.306Z,22.00
2018-02-20T02:26:12.669Z,24.73
2018-02-20T02:28:41.067Z,25.77
2018-02-20T02:31:08.673Z,25.60
2018-02-20T02:33:36.295Z,24.63
2018-02-20T02:36:04.113Z,25.17
2018-02-20T02:38:31.724Z,27.73
2018-02-20T02:40:59.382Z,24.57
2018-02-20T02:43:26.988Z,26.00
2018-02-20T02:45:54.623Z,25.80
2018-02-20T02:48:22.278Z,28.13
2018-02-20T02:50:49.891Z,27.80
2018-02-20T02:53:18.297Z,29.27
2018-02-20T02:55:45.902Z,25.67
2018-02-20T02:58:13.526Z,26.47
2018-02-20T03:00:41.126Z,27.60
2018-02-20T03:03:08.769Z,28.33
2018-02-20T03:05:36.367Z,27.63
2018-02-20T03:08:04.741Z,27.67
2018-02-20T03:10:32.387Z,27.30
2018-02-20T03:12:59.993Z,28.93
2018-02-20T03:15:27.613Z,29.93
2018-02-20T03:17:55.223Z,29.87
2018-02-20T03:20:22.872Z,29.97
2018-02-20T03:22:50.472Z,29.23
2018-02-20T03:25:18.072Z,31.67
2018-02-20T03:27:46.457Z,29.57
2018-02-20T03:30:14.820Z,30.63
2018-02-20T03:32:43.213Z,31.47
2018-02-20T03:35:11.575Z,31.50
2018-02-20T03:37:39.199Z,32.90
2018-02-20T03:40:06.804Z,34.30
2018-02-20T03:42:35.208Z,31.33
2018-02-20T03:45:02.798Z,30.80
2018-02-20T03:47:31.154Z,34.30
2018-02-20T03:49:58.778Z,31.13
2018-02-20T03:52:27.149Z,32.20
2018-02-20T03:54:54.772Z,34.87
2018-02-20T03:57:22.367Z,33.90
2018-02-20T03:59:49.999Z,36.27
2018-02-20T04:02:17.599Z,33.90
2018-02-20T04:04:45.998Z,32.00
2018-02-20T04:07:13.605Z,31.80
2018-02-20T04:09:41.203Z,33.50
2018-02-20T04:12:09.601Z,33.57
2018-02-20T04:14:37.185Z,35.73
2018-02-20T04:17:04.818Z,33.33
2018-02-20T04:19:32.430Z,34.20
2018-02-20T04:22:00.066Z,35.07
2018-02-20T04:24:27.661Z,34.93
2018-02-20T04:26:55.258Z,37.93
2018-02-20T04:29:22.890Z,36.33
2018-02-20T04:31:51.240Z,36.20
2018-02-20T04:34:18.869Z,35.40
2018-02-20T04:36:46.448Z,36.40
2018-02-20T04:39:14.077Z,37.10
2018-02-20T04:41:41.676Z,34.67
2018-02-20T04:44:09.264Z,34.67
2018-02-20T04:46:36.888Z,36.87
2018-02-20T04:49:04.472Z,36.97
2018-02-20T04:51:32.097Z,35.57
2018-02-20T04:53:59.674Z,36.33
2018-02-20T04:56:28.027Z,37.67
2018-02-20T04:58:56.489Z,36.03
2018-02-20T05:01:24.081Z,36.53
2018-02-20T05:03:51.693Z,38.07
2018-02-20T05:06:20.052Z,38.47
2018-02-20T05:08:47.684Z,35.90
2018-02-20T05:11:15.269Z,37.97
2018-02-20T05:13:42.853Z,36.43
2018-02-20T05:16:11.248Z,38.40
2018-02-20T05:18:38.832Z,36.07
2018-02-20T05:21:06.453Z,36.20
2018-02-20T05:23:34.053Z,35.73
2018-02-20T05:26:01.851Z,36.27
2018-02-20T05:28:29.452Z,36.17
2018-02-20T05:30:57.063Z,35.27
2018-02-20T05:33:24.713Z,34.90
2018-02-20T05:35:52.292Z,35.87
2018-02-20T05:38:19.906Z,36.73
2018-02-20T05:40:47.510Z,37.10
2018-02-20T05:43:15.104Z,36.67
2018-02-20T05:45:43.490Z,37.50
2018-02-20T05:48:11.077Z,39.67
2018-02-20T05:50:38.696Z,36.53
2018-02-20T05:53:07.089Z,38.83
2018-02-20T05:55:34.700Z,37.20
2018-02-20T05:58:02.334Z,34.10
2018-02-20T06:00:29.919Z,39.03
2018-02-20T06:02:57.513Z,37.27
2018-02-20T06:05:25.907Z,38.40
2018-02-20T06:07:53.481Z,36.80
2018-02-20T06:10:21.132Z,37.00
2018-02-20T06:12:48.838Z,37.80
2018-02-20T06:15:16.528Z,38.80
2018-02-20T06:17:45.187Z,37.57
2018-02-20T06:20:12.775Z,36.50
2018-02-20T06:22:41.182Z,40.30
2018-02-20T06:25:08.936Z,37.67
2018-02-20T06:27:36.518Z,37.33
2018-02-20T06:30:04.133Z,40.40
2018-02-20T06:32:32.481Z,38.87
2018-02-20T06:35:00.380Z,37.03
2018-02-20T06:37:28.736Z,41.20
2018-02-20T06:39:56.334Z,35.93
2018-02-20T06:42:23.947Z,32.67
2018-02-20T06:44:51.537Z,39.17
2018-02-20T06:47:19.933Z,38.73
2018-02-20T06:49:47.521Z,39.70
2018-02-20T06:52:15.106Z,41.47
2018-02-20T06:54:42.722Z,37.07
2018-02-20T06:57:10.302Z,35.17
2018-02-20T06:59:37.943Z,40.50
2018-02-20T07:02:05.522Z,40.17
2018-02-20T07:04:33.090Z,36.43
2018-02-20T07:07:00.690Z,40.83
2018-02-20T07:09:29.041Z,37.83
2018-02-20T07:11:56.644Z,38.67
2018-02-20T07:14:24.274Z,38.07
2018-02-20T07:16:51.884Z,37.87
2018-02-20T07:19:19.464Z,37.50
2018-02-20T07:21:47.086Z,37.07
2018-02-20T07:24:14.739Z,66.17
2018-02-20T07:26:42.339Z,107.33
2018-02-20T07:29:09.975Z,57.40
2018-02-20T07:31:37.605Z,42.20
2018-02-20T07:34:05.380Z,40.37
2018-02-20T07:36:33.805Z,43.03
2018-02-20T07:39:02.206Z,42.57
2018-02-20T07:41:29.789Z,38.77
2018-02-20T07:43:58.191Z,42.47
2018-02-20T07:46:25.832Z,43.30
2018-02-20T07:48:54.241Z,42.60
2018-02-20T07:51:21.837Z,40.03
2018-02-20T07:53:49.430Z,44.20
2018-02-20T07:56:17.813Z,43.17
2018-02-20T07:58:46.214Z,40.00
2018-02-20T08:01:13.852Z,42.00
2018-02-20T08:03:42.226Z,45.70
2018-02-20T08:06:10.578Z,43.20
2018-02-20T08:08:38.189Z,42.87
2018-02-20T08:11:05.779Z,42.33
2018-02-20T08:13:34.188Z,44.73
2018-02-20T08:16:01.789Z,44.67
2018-02-20T08:18:29.463Z,42.97
2018-02-20T08:20:57.159Z,44.27
2018-02-20T08:23:24.773Z,42.73
2018-02-20T08:25:52.384Z,42.27
2018-02-20T08:28:19.957Z,43.60
2018-02-20T08:30:48.308Z,44.07
2018-02-20T08:33:15.997Z,46.27
2018-02-20T08:35:43.663Z,41.47
2018-02-20T08:38:12.034Z,44.90
2018-02-20T08:40:40.416Z,44.40
2018-02-20T08:43:08.772Z,45.73
2018-02-20T08:45:36.378Z,45.80
2018-02-20T08:48:04.013Z,42.20
2018-02-20T08:50:32.435Z,44.77
2018-02-20T08:53:00.009Z,47.27
2018-02-20T08:55:27.599Z,43.17
2018-02-20T08:57:55.206Z,43.50
2018-02-20T09:00:22.787Z,43.90
2018-02-20T09:02:50.420Z,45.20
2018-02-20T09:05:18.016Z,46.80
2018-02-20T09:07:45.608Z,44.77
2018-02-20T09:10:13.996Z,46.07
2018-02-20T09:12:42.352Z,47.43
2018-02-20T09:15:09.974Z,46.60
2018-02-20T09:17:37.555Z,46.53
2018-02-20T09:20:05.164Z,46.00
2018-02-20T09:22:32.735Z,43.60
2018-02-20T09:25:00.314Z,44.10
2018-02-20T09:27:27.957Z,45.30
2018-02-20T09:29:55.553Z,45.30
2018-02-20T09:32:23.181Z,47.20
2018-02-20T09:34:50.764Z,44.37
2018-02-20T09:37:18.339Z,43.63
2018-02-20T09:39:45.949Z,47.30
2018-02-20T09:42:13.526Z,47.50
2018-02-20T09:44:41.126Z,47.00
2018-02-20T09:47:08.811Z,48.67
2018-02-20T09:49:37.179Z,45.07
2018-02-20T09:52:05.520Z,44.30
2018-02-20T09:54:33.116Z,47.10
2018-02-20T09:57:01.699Z,47.53
2018-02-20T09:59:30.053Z,44.87
2018-02-20T10:01:57.673Z,45.63
2018-02-20T10:04:25.251Z,45.70
2018-02-20T10:06:53.815Z,47.07
2018-02-20T10:09:21.441Z,47.67
2018-02-20T10:11:49.775Z,50.70
2018-02-20T10:14:17.399Z,47.33
2018-02-20T10:16:44.967Z,48.00
2018-02-20T10:19:12.544Z,47.27
2018-02-20T10:21:40.155Z,45.10
2018-02-20T10:24:08.499Z,48.10
2018-02-20T10:26:36.120Z,48.10
2018-02-20T10:29:03.939Z,47.97
2018-02-20T10:31:31.524Z,45.70
2018-02-20T10:33:59.940Z,45.97
2018-02-20T10:36:27.525Z,48.00
2018-02-20T10:41:28.598Z,55.80
2018-02-20T10:43:56.291Z,90.70
2018-02-20T10:46:24.672Z,69.57
2018-02-20T10:48:52.267Z,48.67
2018-02-20T10:51:19.900Z,46.27
2018-02-20T10:53:47.500Z,51.57
2018-02-20T10:56:15.918Z,75.63
2018-02-20T10:58:44.324Z,47.03
2018-02-20T11:01:12.013Z,72.60
2018-02-20T11:03:39.661Z,50.40
2018-02-20T11:06:07.255Z,56.10
2018-02-20T11:08:34.891Z,48.57
2018-02-20T11:11:02.736Z,44.30
2018-02-20T11:13:30.339Z,47.20
2018-02-20T11:15:57.973Z,48.00
2018-02-20T11:18:25.563Z,49.10
2018-02-20T11:20:53.216Z,50.07
2018-02-20T11:23:20.815Z,61.30
2018-02-20T11:25:49.197Z,51.23
2018-02-20T11:28:16.829Z,56.70
2018-02-20T11:30:44.628Z,48.80
2018-02-20T11:33:12.277Z,49.40
2018-02-20T11:35:40.654Z,45.70
2018-02-20T11:38:08.299Z,48.53
2018-02-20T11:40:35.913Z,73.20
2018-02-20T11:43:03.599Z,48.30
2018-02-20T11:45:32.203Z,44.87
2018-02-20T11:48:00.579Z,47.23
2018-02-20T11:50:28.227Z,40.73
2018-02-20T11:52:55.845Z,43.27
2018-02-20T11:55:23.450Z,43.10
2018-02-20T11:57:51.083Z,45.00
2018-02-20T12:00:18.704Z,43.87
2018-02-20T12:02:47.121Z,49.07
2018-02-20T12:05:14.742Z,42.93
2018-02-20T12:07:43.100Z,41.67
2018-02-20T12:10:10.735Z,41.67
2018-02-20T12:12:38.345Z,41.80
2018-02-20T12:15:06.907Z,39.77
2018-02-20T12:17:35.302Z,42.00
2018-02-20T12:20:03.728Z,38.07
2018-02-20T12:22:31.354Z,40.73
2018-02-20T12:24:58.968Z,41.83
2018-02-20T12:27:26.598Z,41.47
2018-02-20T12:29:54.202Z,39.67
2018-02-20T12:32:21.860Z,40.83
2018-02-20T12:34:49.488Z,38.23
2018-02-20T12:37:17.093Z,42.07
2018-02-20T12:39:45.488Z,38.67
2018-02-20T12:42:13.080Z,41.00
2018-02-20T12:44:40.734Z,38.83
2018-02-20T12:47:08.468Z,38.00
2018-02-20T12:49:36.068Z,41.17
2018-02-20T12:52:03.695Z,38.37
2018-02-20T12:54:31.309Z,36.30
2018-02-20T12:56:58.956Z,37.73
2018-02-20T12:59:26.556Z,37.73
2018-02-20T13:01:54.919Z,39.57
2018-02-20T13:04:22.545Z,35.60
2018-02-20T13:06:50.143Z,37.50
2018-02-20T13:09:17.780Z,38.60
2018-02-20T13:11:45.386Z,38.63
2018-02-20T13:14:13.024Z,38.63
2018-02-20T13:16:40.683Z,41.23
2018-02-20T13:19:08.300Z,45.83
2018-02-20T13:21:35.946Z,45.37
2018-02-20T13:24:03.859Z,52.77
2018-02-20T13:26:31.468Z,43.33
2018-02-20T13:28:59.131Z,46.13
2018-02-20T13:31:26.737Z,40.23
2018-02-20T13:33:55.347Z,38.30
2018-02-20T13:36:23.723Z,41.50
2018-02-20T13:38:52.146Z,39.37
2018-02-20T13:41:19.814Z,35.50
2018-02-20T13:43:47.429Z,31.90
2018-02-20T13:46:15.845Z,33.30
2018-02-20T13:48:43.837Z,33.00
2018-02-20T13:51:11.485Z,33.47
2018-02-20T13:53:39.087Z,33.13
2018-02-20T13:56:06.707Z,32.20
2018-02-20T13:58:34.333Z,30.80
2018-02-20T14:01:01.959Z,29.40
2018-02-20T14:03:29.592Z,28.40
2018-02-20T14:05:57.196Z,27.07
2018-02-20T14:08:25.579Z,32.93
2018-02-20T14:10:53.976Z,27.97
2018-02-20T14:13:21.575Z,25.47
2018-02-20T14:15:49.223Z,25.30
2018-02-20T14:18:16.820Z,27.20
2018-02-20T14:20:44.421Z,27.50
2018-02-20T14:23:12.047Z,23.93
2018-02-20T14:25:40.415Z,22.23
2018-02-20T14:28:08.080Z,24.23
2018-02-20T14:30:35.675Z,22.97
2018-02-20T14:33:03.336Z,25.20
2018-02-20T14:35:31.007Z,21.50
2018-02-20T14:37:58.642Z,22.27
2018-02-20T14:40:27.061Z,23.57
2018-02-20T14:42:54.664Z,25.17
2018-02-20T14:45:22.280Z,27.07
2018-02-20T14:47:49.915Z,23.60
2018-02-20T14:50:17.516Z,24.73
2018-02-20T14:52:45.162Z,22.80
2018-02-20T14:55:12.768Z,22.50
2018-02-20T14:57:41.167Z,21.40
2018-02-20T15:00:08.816Z,24.90
2018-02-20T15:02:37.274Z,22.27
2018-02-20T15:05:04.934Z,22.83
2018-02-20T15:07:32.539Z,22.17
2018-02-20T15:10:00.148Z,22.67
2018-02-20T15:12:27.787Z,24.40
2018-02-20T15:14:55.401Z,22.90
2018-02-20T15:17:23.821Z,24.97
2018-02-20T15:19:51.626Z,21.77
2018-02-20T15:22:19.257Z,20.73
2018-02-20T15:24:46.875Z,20.70
2018-02-20T15:27:14.504Z,24.30
2018-02-20T15:29:42.180Z,20.73
2018-02-20T15:32:10.586Z,20.80
2018-02-20T15:34:38.174Z,19.93
2018-02-20T15:37:05.807Z,22.80
2018-02-20T15:39:33.508Z,18.57
2018-02-20T15:42:01.139Z,21.80
2018-02-20T15:44:28.753Z,21.50
2018-02-20T15:46:57.139Z,21.57
2018-02-20T15:49:24.782Z,21.53
2018-02-20T15:51:52.376Z,21.03
2018-02-20T15:54:20.794Z,20.10
2018-02-20T15:56:48.549Z,20.20
2018-02-20T15:59:16.177Z,22.47
2018-02-20T16:01:44.620Z,20.57
2018-02-20T16:04:12.228Z,21.20
2018-02-20T16:06:39.848Z,20.10
2018-02-20T16:09:07.472Z,18.37
2018-02-20T16:11:35.071Z,19.63
2018-02-20T16:14:08.470Z,21.43
2018-02-20T16:16:36.129Z,18.73
2018-02-20T16:19:03.747Z,19.30
2018-02-20T16:21:31.386Z,19.70
2018-02-20T16:23:59.047Z,20.63
2018-02-20T16:26:26.662Z,20.17
2018-02-20T16:28:54.282Z,22.20
2018-02-20T16:31:21.943Z,19.60
2018-02-20T16:33:49.561Z,19.30
2018-02-20T16:36:17.206Z,17.60
2018-02-20T16:38:44.875Z,17.17
2018-02-20T16:41:12.513Z,18.50
2018-02-20T16:43:40.135Z,19.30
2018-02-20T16:46:07.732Z,20.23
2018-02-20T16:48:35.378Z,20.00
2018-02-20T16:51:02.996Z,18.93
2018-02-20T16:53:31.423Z,17.37
2018-02-20T16:55:59.039Z,17.67
2018-02-20T16:58:27.431Z,16.90
2018-02-20T17:00:55.035Z,17.03
2018-02-20T17:03:22.815Z,15.53
2018-02-20T17:05:50.439Z,15.57
2018-02-20T17:08:18.031Z,15.63
2018-02-20T17:10:45.652Z,14.83
2018-02-20T17:13:13.259Z,16.17
2018-02-20T17:15:40.899Z,14.70
2018-02-20T17:18:08.533Z,16.27
2018-02-20T17:20:36.168Z,15.00
2018-02-20T17:23:04.552Z,14.57
2018-02-20T17:25:32.174Z,16.47
2018-02-20T17:27:59.800Z,17.00
2018-02-20T17:30:27.399Z,18.03
2018-02-20T17:32:55.058Z,16.00
2018-02-20T17:35:22.656Z,14.40
2018-02-20T17:37:52.601Z,15.10
2018-02-20T17:40:20.260Z,13.80
2018-02-20T17:42:47.904Z,13.33
2018-02-20T17:45:15.541Z,14.50
2018-02-20T17:47:43.907Z,15.47
2018-02-20T17:50:12.621Z,14.80
2018-02-20T17:52:40.323Z,14.90
2018-02-20T17:55:08.158Z,16.13
2018-02-20T17:57:36.213Z,17.17
2018-02-20T18:00:03.901Z,15.77
2018-02-20T18:02:32.351Z,15.37
2018-02-20T18:05:00.944Z,15.10
2018-02-20T18:07:31.583Z,14.47
2018-02-20T18:09:59.208Z,14.57
2018-02-20T18:12:27.625Z,16.13
2018-02-20T18:14:55.222Z,14.00
2018-02-20T18:17:22.821Z,14.27
2018-02-20T18:19:51.209Z,13.83
2018-02-20T18:22:18.966Z,14.73
2018-02-20T18:24:46.616Z,14.20
2018-02-20T18:27:15.050Z,15.67
2018-02-20T18:29:42.683Z,21.60
2018-02-20T18:32:10.516Z,16.10
2018-02-20T18:34:38.891Z,16.97
2018-02-20T18:37:07.288Z,23.17
2018-02-20T18:39:34.893Z,31.70
2018-02-20T18:42:02.515Z,34.90
2018-02-20T18:44:30.134Z,23.73
2018-02-20T18:46:57.779Z,19.43
2018-02-20T18:49:25.370Z,18.07
2018-02-20T18:51:53.831Z,16.63
2018-02-20T18:54:21.431Z,15.27
2018-02-20T18:56:49.058Z,15.17
2018-02-20T18:59:16.656Z,17.10
2018-02-20T19:01:44.341Z,14.60
2018-02-20T19:04:11.934Z,16.00
2018-02-20T19:06:39.555Z,13.67
2018-02-20T19:09:07.148Z,15.67
2018-02-20T19:11:34.778Z,15.47
2018-02-20T19:14:02.549Z,15.67
2018-02-20T19:16:30.222Z,29.13
2018-02-20T19:18:57.859Z,39.97
2018-02-20T19:21:25.454Z,27.00
2018-02-20T19:23:53.082Z,25.20
2018-02-20T19:26:20.675Z,20.90
2018-02-20T19:28:48.271Z,17.20
2018-02-20T19:31:15.931Z,16.60
2018-02-20T19:33:44.294Z,17.73
2018-02-20T19:36:12.078Z,16.17
2018-02-20T19:38:40.449Z,16.57
2018-02-20T19:41:08.802Z,15.93
2018-02-20T19:43:36.435Z,15.50
2018-02-20T19:46:04.035Z,15.20
2018-02-20T19:48:32.439Z,15.87
2018-02-20T19:51:00.151Z,16.53
2018-02-20T19:53:27.740Z,14.93
2018-02-20T19:55:56.320Z,16.30
2018-02-20T19:58:24.911Z,15.67
2018-02-20T20:00:53.369Z,15.20
2018-02-20T20:03:20.974Z,15.60
2018-02-20T20:05:48.588Z,16.07
2018-02-20T20:08:20.215Z,15.37
2018-02-20T20:10:47.830Z,15.60
2018-02-20T20:13:16.222Z,15.37
2018-02-20T20:15:44.019Z,16.60
2018-02-20T20:18:11.626Z,14.13
2018-02-20T20:20:40.080Z,13.70
2018-02-20T20:23:07.708Z,14.80
2018-02-20T20:25:35.357Z,15.03
2018-02-20T20:28:02.980Z,14.60
2018-02-20T20:30:31.415Z,14.30
2018-02-20T20:32:59.034Z,13.67
2018-02-20T20:35:26.624Z,14.83
2018-02-20T20:37:54.260Z,14.10
2018-02-20T20:40:21.864Z,14.60
2018-02-20T20:42:49.476Z,16.23
2018-02-20T20:45:18.041Z,16.43
2018-02-20T20:47:46.404Z,15.43
2018-02-20T20:50:14.208Z,16.37
2018-02-20T20:52:41.812Z,16.10
2018-02-20T20:55:09.421Z,15.47
2018-02-20T20:57:37.076Z,14.83
2018-02-20T21:00:05.557Z,16.57
2018-02-20T21:02:33.966Z,16.00
2018-02-20T21:05:01.650Z,15.93
2018-02-20T21:07:29.258Z,16.10
2018-02-20T21:09:57.816Z,14.30
2018-02-20T21:12:25.438Z,14.80
2018-02-20T21:14:53.077Z,14.67
2018-02-20T21:17:20.685Z,14.97
2018-02-20T21:19:48.284Z,14.90
2018-02-20T21:22:16.686Z,15.87
2018-02-20T21:24:44.378Z,16.33
2018-02-20T21:27:12.052Z,14.63
2018-02-20T21:29:39.653Z,17.50
2018-02-20T21:32:07.246Z,15.63
2018-02-20T21:34:34.862Z,15.77
2018-02-20T21:37:03.233Z,14.63
2018-02-20T21:39:31.628Z,16.10
2018-02-20T21:41:59.220Z,18.20
2018-02-20T21:44:26.814Z,16.47
2018-02-20T21:46:55.249Z,16.57
2018-02-20T21:49:22.936Z,16.40
2018-02-20T21:51:50.561Z,17.40
2018-02-20T21:54:18.151Z,19.33
2018-02-20T21:56:45.750Z,19.43
2018-02-20T21:59:14.345Z,18.90
2018-02-20T22:01:41.944Z,19.63
2018-02-20T22:04:09.577Z,18.53
2018-02-20T22:06:37.207Z,19.50
2018-02-20T22:09:05.693Z,20.83
2018-02-20T22:11:34.052Z,22.60
2018-02-20T22:14:01.799Z,22.50
2018-02-20T22:16:29.420Z,21.50
2018-02-20T22:18:57.016Z,23.47
2018-02-20T22:21:24.648Z,22.13
2018-02-20T22:23:52.251Z,21.13
2018-02-20T22:26:19.851Z,23.90
2018-02-20T22:28:48.415Z,26.03
2018-02-20T22:31:16.785Z,24.47
2018-02-20T22:33:44.535Z,45.40
2018-02-20T22:36:12.130Z,22.90
2018-02-20T22:38:40.702Z,25.60
2018-02-20T22:41:09.081Z,22.30
2018-02-20T22:43:37.455Z,20.77
2018-02-20T22:46:05.846Z,25.17
2018-02-20T22:48:34.211Z,23.73
2018-02-20T22:51:02.607Z,30.50
2018-02-20T22:53:30.315Z,26.23
2018-02-20T22:55:57.943Z,27.30
2018-02-20T22:58:25.578Z,24.97
2018-02-20T23:00:53.170Z,24.20
2018-02-20T23:03:20.797Z,23.57
2018-02-20T23:05:49.158Z,24.40
2018-02-20T23:08:16.952Z,23.40
2018-02-20T23:10:44.570Z,23.33
2018-02-20T23:13:12.180Z,23.83
2018-02-20T23:15:39.803Z,26.13
2018-02-20T23:18:07.473Z,25.50
2018-02-20T23:20:35.104Z,22.17
2018-02-20T23:23:03.058Z,24.60
2018-02-20T23:25:30.663Z,24.87
2018-02-20T23:27:59.063Z,25.87
2018-02-20T23:30:26.659Z,26.37
2018-02-20T23:32:54.302Z,26.17
2018-02-20T23:35:21.894Z,24.67
2018-02-20T23:37:50.379Z,23.23
2018-02-20T23:40:18.022Z,23.50
2018-02-20T23:42:46.511Z,23.97
2018-02-20T23:45:14.154Z,24.83
2018-02-20T23:47:41.751Z,25.00
2018-02-20T23:50:09.359Z,25.10
2018-02-20T23:52:37.003Z,24.77
2018-02-20T23:55:05.395Z,25.83
2018-02-20T23:57:33.116Z,27.17
